METAR AND TAF INFORMATION
METAR FOR PTKK
ADDS - METARS form results

(1150 UTC 19 May 2019)
Data provider http://aviationweather.gov/metar/data/
 
Forecast for: PTKK (WENO IS/CHUUK , FM)
Text: PTKK 191125Z 1912/2012 05006KT P6SM FEW015
Forecast period: 1200 UTC 19 May 2019 to 1200 UTC 20 May 2019
Forecast type: FROM: standard forecast or significant change
Winds: from the NE (50 degrees) at 7 MPH (6 knots; 3.1 m/s)
Visibility: 6 or more miles 10+ km)
Ceiling: at least 12,000 feet AGL
Clouds: few clouds at 1500 feet AGL
Weather: no significant weather forecast for this period

 AIRPORT MAP

 RUNWAY INFORMATION
Runway 04 Runway length 6006 ft Runway width 150 ft
Runway elevation 10 ft Runway displaced threshold 0 ft Runway heading 46
Runway 22 Runway length 6006 ft Runway width 150 ft
Runway elevation 10 ft Runway displaced threshold 0 ft Runway heading 226

 AIRPORT FREQUENCIES
Type CTAF Name CTAF Frequency 123.6 MHZ
Type RDO Name RDO Frequency 123.6 MHZ

 AIRPORT NEAR NAVIGATION AIDS
Type NDB-DME Name Truk Frequency 375 KHZ



Powered by Virtual Airlines Manager [v2.6.2]